createdAt,value
2023-01-12T00:02:22.518Z,6.00
2023-01-12T00:04:50.077Z,6.00
2023-01-12T00:07:18.140Z,6.10
2023-01-12T00:09:48.530Z,6.10
2023-01-12T00:12:15.678Z,6.10
2023-01-12T00:14:42.784Z,6.10
2023-01-12T00:17:12.013Z,6.30
2023-01-12T00:19:40.195Z,6.40
2023-01-12T00:22:13.298Z,6.60
2023-01-12T00:24:46.213Z,6.80
2023-01-12T00:27:17.335Z,7.00
2023-01-12T00:29:45.082Z,7.10
2023-01-12T00:32:15.935Z,7.20
2023-01-12T00:34:45.127Z,7.40
2023-01-12T00:37:13.267Z,7.40
2023-01-12T00:39:42.965Z,7.50
2023-01-12T00:42:32.245Z,7.60
2023-01-12T00:45:17.895Z,7.80
2023-01-12T00:47:45.197Z,7.90
2023-01-12T00:50:12.329Z,8.00
2023-01-12T00:52:39.486Z,8.10
2023-01-12T00:55:07.319Z,8.10
2023-01-12T00:57:34.443Z,8.20
2023-01-12T01:00:01.597Z,8.30
2023-01-12T01:02:29.425Z,8.30
2023-01-12T01:04:56.876Z,8.30
2023-01-12T01:07:24.793Z,8.30
2023-01-12T01:09:52.164Z,8.40
2023-01-12T01:12:20.138Z,8.40
2023-01-12T01:14:48.090Z,8.50
2023-01-12T01:17:15.472Z,8.50
2023-01-12T01:19:43.755Z,8.50
2023-01-12T01:22:13.031Z,8.60
2023-01-12T01:24:41.774Z,8.50
2023-01-12T01:27:09.051Z,8.50
2023-01-12T01:29:39.534Z,8.50
2023-01-12T01:32:09.850Z,8.50
2023-01-12T01:34:37.267Z,8.50
2023-01-12T01:37:04.535Z,8.60
2023-01-12T01:39:31.776Z,8.60
2023-01-12T01:41:58.920Z,8.70
2023-01-12T01:44:32.091Z,8.70
2023-01-12T01:47:09.622Z,8.70
2023-01-12T01:49:54.200Z,8.80
2023-01-12T01:52:40.809Z,8.80
2023-01-12T01:55:16.927Z,8.80
2023-01-12T01:57:59.071Z,8.80
2023-01-12T02:00:26.600Z,8.90
2023-01-12T02:02:54.643Z,8.90
2023-01-12T02:05:26.875Z,8.90
2023-01-12T02:08:08.027Z,8.90
2023-01-12T02:10:36.112Z,8.90
2023-01-12T02:13:21.911Z,8.90
2023-01-12T02:16:23.029Z,8.90
2023-01-12T02:18:54.520Z,8.90
2023-01-12T02:22:28.841Z,8.90
2023-01-12T02:25:42.000Z,8.90
2023-01-12T02:28:30.602Z,8.90
2023-01-12T02:31:42.094Z,8.90
2023-01-12T02:34:30.363Z,8.90
2023-01-12T02:37:35.582Z,8.90
2023-01-12T02:40:44.375Z,8.90
2023-01-12T02:43:24.356Z,8.90
2023-01-12T02:46:27.357Z,8.90
2023-01-12T02:49:09.604Z,8.80
2023-01-12T02:52:06.556Z,8.80
2023-01-12T02:54:36.893Z,8.80
2023-01-12T02:57:09.084Z,8.80
2023-01-12T02:59:41.323Z,8.80
2023-01-12T03:02:15.043Z,8.80
2023-01-12T03:04:42.453Z,8.80
2023-01-12T03:08:06.766Z,8.80
2023-01-12T03:11:00.747Z,8.90
2023-01-12T03:13:31.335Z,8.80
2023-01-12T03:16:00.854Z,8.90
2023-01-12T03:18:41.611Z,8.80
2023-01-12T03:21:37.801Z,8.80
2023-01-12T03:24:20.043Z,8.80
2023-01-12T03:26:53.488Z,8.80
2023-01-12T03:29:34.600Z,8.80
2023-01-12T03:32:02.446Z,8.70
2023-01-12T03:34:32.116Z,8.70
2023-01-12T03:37:14.450Z,8.70
2023-01-12T03:40:17.192Z,8.70
2023-01-12T03:43:18.283Z,8.80
2023-01-12T03:45:57.055Z,8.80
2023-01-12T03:48:57.044Z,8.90
2023-01-12T03:51:45.330Z,8.90
2023-01-12T03:54:14.459Z,8.90
2023-01-12T03:56:45.422Z,8.80
2023-01-12T03:59:13.171Z,8.80
2023-01-12T04:01:41.975Z,8.80
2023-01-12T04:04:12.134Z,8.80
2023-01-12T04:06:42.283Z,8.90
2023-01-12T04:09:09.584Z,8.90
2023-01-12T04:11:55.578Z,9.00
2023-01-12T04:14:22.823Z,9.00
2023-01-12T04:16:53.163Z,8.90
2023-01-12T04:19:20.435Z,8.90
2023-01-12T04:22:06.295Z,8.90
2023-01-12T04:24:33.412Z,8.90
2023-01-12T04:27:00.696Z,8.90
2023-01-12T04:29:30.742Z,8.90
2023-01-12T04:31:57.980Z,8.90
2023-01-12T04:34:25.288Z,8.90
2023-01-12T04:36:52.425Z,8.80
2023-01-12T04:39:19.540Z,8.80
2023-01-12T04:41:46.720Z,8.80
2023-01-12T04:44:13.949Z,8.80
2023-01-12T04:46:41.127Z,8.80
2023-01-12T04:49:08.343Z,8.80
2023-01-12T04:51:35.479Z,8.70
2023-01-12T04:54:05.708Z,8.70
2023-01-12T04:56:35.870Z,8.80
2023-01-12T04:59:03.057Z,8.70
2023-01-12T05:01:30.800Z,8.70
2023-01-12T05:04:00.722Z,8.70
2023-01-12T05:06:28.792Z,8.70
2023-01-12T05:09:14.640Z,8.70
2023-01-12T05:11:41.842Z,8.70
2023-01-12T05:14:08.935Z,8.70
2023-01-12T05:16:36.167Z,8.70
2023-01-12T05:19:03.329Z,8.60
2023-01-12T05:21:30.746Z,8.60
2023-01-12T05:23:57.909Z,8.60
2023-01-12T05:26:25.019Z,8.60
2023-01-12T05:28:52.268Z,8.50
2023-01-12T05:31:19.702Z,8.50
2023-01-12T05:33:47.184Z,8.50
2023-01-12T05:36:16.746Z,8.50
2023-01-12T05:38:44.319Z,8.50
2023-01-12T05:41:14.444Z,8.50
2023-01-12T05:43:51.464Z,8.40
2023-01-12T05:46:20.619Z,8.40
2023-01-12T05:48:48.811Z,8.40
2023-01-12T05:51:16.920Z,8.30
2023-01-12T05:53:44.537Z,8.30
2023-01-12T05:56:23.414Z,8.30
2023-01-12T05:58:56.299Z,8.30
2023-01-12T06:01:24.262Z,8.30
2023-01-12T06:03:55.041Z,8.30
2023-01-12T06:06:26.020Z,8.20
2023-01-12T06:08:54.466Z,8.30
2023-01-12T06:11:41.121Z,8.30
2023-01-12T06:14:09.739Z,8.20
2023-01-12T06:16:42.801Z,8.20
2023-01-12T06:19:12.892Z,8.20
2023-01-12T06:21:40.961Z,8.10
2023-01-12T06:24:09.040Z,8.10
2023-01-12T06:26:36.209Z,8.10
2023-01-12T06:29:06.963Z,8.10
2023-01-12T06:31:34.826Z,8.10
2023-01-12T06:34:01.965Z,8.10
2023-01-12T06:36:29.166Z,8.20
2023-01-12T06:38:56.283Z,8.10
2023-01-12T06:41:41.958Z,8.10
2023-01-12T06:44:09.144Z,8.30
2023-01-12T06:46:36.421Z,8.30
2023-01-12T06:49:03.589Z,8.30
2023-01-12T06:51:30.811Z,8.20
2023-01-12T06:53:58.105Z,8.20
2023-01-12T06:56:25.352Z,8.20
2023-01-12T06:58:52.966Z,8.20
2023-01-12T07:01:20.479Z,8.10
2023-01-12T07:03:47.688Z,8.00
2023-01-12T07:06:15.169Z,8.00
2023-01-12T07:08:43.380Z,8.00
2023-01-12T07:11:15.143Z,7.90
2023-01-12T07:13:42.668Z,7.90
2023-01-12T07:16:10.153Z,7.80
2023-01-12T07:18:37.523Z,7.80
2023-01-12T07:21:06.733Z,7.70
2023-01-12T07:23:34.106Z,7.70
2023-01-12T07:26:01.441Z,7.60
2023-01-12T07:28:28.718Z,7.60
2023-01-12T07:31:04.420Z,7.60
2023-01-12T07:33:32.595Z,7.50
2023-01-12T07:36:02.127Z,7.50
2023-01-12T07:38:30.991Z,7.50
2023-01-12T07:41:02.857Z,7.40
2023-01-12T07:43:33.390Z,7.40
2023-01-12T07:46:01.459Z,7.30
2023-01-12T07:48:29.060Z,7.30
2023-01-12T07:50:59.290Z,7.30
2023-01-12T07:53:26.560Z,7.30
2023-01-12T07:55:53.658Z,7.30
2023-01-12T07:58:21.117Z,7.30
2023-01-12T08:00:48.228Z,7.50
2023-01-12T08:03:15.474Z,7.60
2023-01-12T08:05:42.824Z,7.70
2023-01-12T08:08:10.007Z,7.80
2023-01-12T08:10:37.662Z,7.80
2023-01-12T08:13:04.797Z,8.00
2023-01-12T08:15:38.677Z,8.10
2023-01-12T08:18:23.836Z,8.10
2023-01-12T08:20:53.946Z,8.30
2023-01-12T08:23:42.920Z,8.40
2023-01-12T08:26:19.924Z,8.50
2023-01-12T08:28:57.877Z,8.50
2023-01-12T08:31:26.358Z,8.60
2023-01-12T08:33:56.197Z,8.70
2023-01-12T08:36:24.549Z,8.80
2023-01-12T08:38:52.228Z,8.90
2023-01-12T08:41:37.441Z,9.00
2023-01-12T08:44:09.862Z,9.20
2023-01-12T08:46:48.818Z,9.30
2023-01-12T08:49:19.465Z,9.40
2023-01-12T08:51:49.537Z,9.50
2023-01-12T08:54:18.429Z,9.60
2023-01-12T08:56:46.138Z,9.70
2023-01-12T08:59:13.712Z,9.70
2023-01-12T09:01:41.069Z,9.80
2023-01-12T09:04:08.513Z,9.90
2023-01-12T09:06:40.218Z,9.90
2023-01-12T09:09:14.022Z,10.00
2023-01-12T09:11:43.093Z,10.10
2023-01-12T09:14:12.050Z,10.10
2023-01-12T09:16:40.197Z,10.20
2023-01-12T09:19:08.291Z,10.30
2023-01-12T09:21:39.709Z,10.40
2023-01-12T09:24:08.324Z,10.40
2023-01-12T09:26:41.983Z,10.50
2023-01-12T09:29:12.126Z,10.50
2023-01-12T09:31:42.145Z,10.50
2023-01-12T09:34:09.981Z,10.60
2023-01-12T09:36:39.342Z,10.60
2023-01-12T09:39:15.500Z,10.70
2023-01-12T09:42:09.700Z,10.70
2023-01-12T09:45:07.264Z,10.70
2023-01-12T09:47:48.597Z,10.80
2023-01-12T09:50:37.084Z,10.80
2023-01-12T09:53:18.143Z,10.90
2023-01-12T09:56:04.256Z,11.00
2023-01-12T09:59:19.322Z,11.10
2023-01-12T10:01:46.910Z,11.30
2023-01-12T10:04:14.712Z,11.40
2023-01-12T10:06:44.772Z,11.40
2023-01-12T10:09:18.616Z,11.50
2023-01-12T10:12:42.086Z,11.50
2023-01-12T10:15:23.810Z,11.50
2023-01-12T10:18:28.633Z,11.50
2023-01-12T10:20:57.405Z,11.60
2023-01-12T10:23:28.118Z,11.70
2023-01-12T10:26:31.880Z,11.80
2023-01-12T10:29:02.635Z,12.00
2023-01-12T10:31:29.870Z,12.10
2023-01-12T10:34:08.671Z,12.20
2023-01-12T10:36:49.990Z,12.30
2023-01-12T10:39:38.665Z,12.40
2023-01-12T10:42:42.365Z,12.40
2023-01-12T10:45:22.554Z,12.50
2023-01-12T10:47:53.792Z,12.60
2023-01-12T10:50:28.298Z,12.70
2023-01-12T10:53:06.307Z,12.80
2023-01-12T10:55:39.705Z,12.90
2023-01-12T10:58:29.379Z,13.00
2023-01-12T11:00:57.484Z,13.20
2023-01-12T11:03:39.347Z,13.20
2023-01-12T11:06:27.177Z,13.20
2023-01-12T11:08:55.702Z,13.30
2023-01-12T11:11:33.390Z,13.40
2023-01-12T11:14:04.071Z,13.50
2023-01-12T11:16:48.213Z,13.50
2023-01-12T11:19:32.696Z,13.50
2023-01-12T11:22:17.262Z,13.50
2023-01-12T11:24:55.391Z,13.40
2023-01-12T11:27:31.963Z,13.40
2023-01-12T11:30:16.732Z,13.50
2023-01-12T11:33:32.867Z,13.50
2023-01-12T11:36:08.427Z,13.40
2023-01-12T11:38:58.743Z,13.40
2023-01-12T11:42:08.064Z,13.30
2023-01-12T11:45:18.921Z,13.30
2023-01-12T11:48:20.134Z,13.40
2023-01-12T11:50:50.477Z,13.40
2023-01-12T11:53:24.176Z,13.40
2023-01-12T11:57:03.249Z,13.40
2023-01-12T12:00:18.797Z,13.50
2023-01-12T12:03:33.752Z,13.70
2023-01-12T12:06:38.991Z,13.90
2023-01-12T12:09:43.186Z,14.00
2023-01-12T12:12:34.818Z,14.10
2023-01-12T12:15:47.837Z,14.10
2023-01-12T12:18:23.537Z,14.10
2023-01-12T12:21:17.588Z,14.20
2023-01-12T12:24:25.034Z,14.10
2023-01-12T12:27:58.078Z,14.20
2023-01-12T12:30:46.242Z,14.20
2023-01-12T12:33:45.146Z,14.30
2023-01-12T12:36:38.863Z,14.40
2023-01-12T12:39:42.847Z,14.40
2023-01-12T12:43:15.986Z,14.40
2023-01-12T12:46:31.819Z,14.30
2023-01-12T12:49:25.291Z,14.20
2023-01-12T12:51:56.405Z,14.20
2023-01-12T12:54:24.606Z,14.30
2023-01-12T12:56:51.843Z,14.50
2023-01-12T12:59:34.078Z,14.70
2023-01-12T13:02:03.154Z,14.90
2023-01-12T13:04:46.324Z,15.00
2023-01-12T13:07:21.336Z,15.20
2023-01-12T13:09:50.213Z,15.30
2023-01-12T13:12:30.235Z,15.40
2023-01-12T13:15:23.963Z,15.30
2023-01-12T13:17:53.986Z,15.40
2023-01-12T13:20:26.343Z,15.40
2023-01-12T13:22:53.879Z,15.30
2023-01-12T13:25:22.178Z,15.40
2023-01-12T13:28:01.541Z,15.40
2023-01-12T13:30:28.704Z,15.40
2023-01-12T13:33:17.389Z,15.40
2023-01-12T13:35:44.933Z,15.30
2023-01-12T13:38:33.987Z,15.30
2023-01-12T13:41:41.575Z,15.30
2023-01-12T13:44:29.726Z,15.20
2023-01-12T13:47:10.383Z,15.10
2023-01-12T13:49:52.137Z,14.90
2023-01-12T13:52:27.121Z,14.80
2023-01-12T13:54:54.241Z,14.50
2023-01-12T13:57:31.634Z,14.30
2023-01-12T14:00:11.859Z,14.10
2023-01-12T14:02:41.678Z,13.90
2023-01-12T14:05:36.357Z,13.80
2023-01-12T14:08:51.762Z,13.60
2023-01-12T14:11:40.566Z,13.50
2023-01-12T14:15:16.161Z,13.40
2023-01-12T14:17:49.196Z,13.30
2023-01-12T14:20:22.696Z,13.30
2023-01-12T14:23:05.179Z,13.20
2023-01-12T14:25:32.498Z,13.20
2023-01-12T14:27:59.677Z,13.20
2023-01-12T14:30:30.147Z,13.10
2023-01-12T14:32:57.512Z,13.10
2023-01-12T14:35:26.000Z,13.00
2023-01-12T14:38:01.532Z,12.90
2023-01-12T14:40:33.057Z,12.80
2023-01-12T14:43:21.133Z,12.70
2023-01-12T14:46:21.637Z,12.60
2023-01-12T14:49:41.615Z,12.60
2023-01-12T14:52:17.698Z,12.50
2023-01-12T14:54:45.002Z,12.50
2023-01-12T14:57:24.074Z,12.40
2023-01-12T14:59:52.046Z,12.30
2023-01-12T15:02:40.512Z,12.30
2023-01-12T15:05:10.268Z,12.20
2023-01-12T15:07:56.493Z,12.00
2023-01-12T15:10:35.742Z,12.00
2023-01-12T15:13:29.793Z,11.90
2023-01-12T15:16:23.535Z,11.80
2023-01-12T15:19:09.723Z,11.70
2023-01-12T15:21:57.042Z,11.70
2023-01-12T15:24:53.574Z,11.60
2023-01-12T15:27:23.604Z,11.60
2023-01-12T15:29:51.138Z,11.50
2023-01-12T15:32:47.451Z,11.40
2023-01-12T15:35:30.137Z,11.40
2023-01-12T15:37:59.131Z,11.30
2023-01-12T15:40:28.129Z,11.20
2023-01-12T15:42:55.380Z,11.20
2023-01-12T15:45:38.996Z,11.20
2023-01-12T15:48:06.983Z,11.10
2023-01-12T15:50:37.282Z,11.10
2023-01-12T15:53:12.199Z,11.00
2023-01-12T15:55:43.246Z,11.00
2023-01-12T15:58:10.661Z,10.90
2023-01-12T16:00:38.695Z,10.90
2023-01-12T16:03:06.405Z,10.90
2023-01-12T16:05:33.653Z,10.80
2023-01-12T16:08:00.831Z,10.80
2023-01-12T16:10:30.332Z,10.70
2023-01-12T16:13:01.899Z,10.60
2023-01-12T16:15:30.477Z,10.60
2023-01-12T16:17:57.693Z,10.50
2023-01-12T16:20:24.872Z,10.50
2023-01-12T16:22:52.156Z,10.50
2023-01-12T16:25:19.585Z,10.50
2023-01-12T16:27:47.131Z,10.50
2023-01-12T16:30:16.044Z,10.50
2023-01-12T16:32:46.830Z,10.50
2023-01-12T16:35:15.791Z,10.50
2023-01-12T16:37:44.718Z,10.50
2023-01-12T16:40:12.966Z,10.40
2023-01-12T16:42:40.090Z,10.40
2023-01-12T16:45:07.935Z,10.40
2023-01-12T16:47:35.100Z,10.30
2023-01-12T16:50:03.239Z,10.20
2023-01-12T16:52:30.502Z,10.20
2023-01-12T16:54:57.686Z,10.10
2023-01-12T16:57:25.110Z,10.10
2023-01-12T16:59:52.363Z,10.10
2023-01-12T17:02:19.987Z,10.00
2023-01-12T17:04:49.116Z,10.00
2023-01-12T17:07:16.382Z,9.90
2023-01-12T17:09:44.094Z,9.90
2023-01-12T17:12:11.467Z,9.90
2023-01-12T17:14:38.775Z,9.90
2023-01-12T17:17:09.399Z,9.90
2023-01-12T17:19:39.418Z,9.90
2023-01-12T17:22:08.293Z,9.90
2023-01-12T17:24:41.769Z,9.90
2023-01-12T17:27:10.643Z,9.90
2023-01-12T17:29:38.093Z,9.80
2023-01-12T17:32:07.743Z,9.80
2023-01-12T17:34:38.587Z,9.80
2023-01-12T17:37:09.830Z,9.80
2023-01-12T17:39:44.952Z,9.70
2023-01-12T17:42:36.217Z,9.80
2023-01-12T17:45:05.564Z,9.70
2023-01-12T17:47:32.841Z,9.70
2023-01-12T17:50:00.288Z,9.70
2023-01-12T17:52:27.672Z,9.60
2023-01-12T17:54:55.033Z,9.70
2023-01-12T17:57:22.361Z,9.60
2023-01-12T17:59:50.339Z,9.60
2023-01-12T18:02:18.308Z,9.50
2023-01-12T18:04:46.779Z,9.50
2023-01-12T18:07:14.051Z,9.50
2023-01-12T18:09:42.059Z,9.40
2023-01-12T18:12:10.787Z,9.40
2023-01-12T18:14:38.633Z,9.40
2023-01-12T18:17:06.330Z,9.30
2023-01-12T18:19:33.887Z,9.40
2023-01-12T18:22:06.110Z,9.40
2023-01-12T18:24:34.882Z,9.40
2023-01-12T18:27:02.667Z,9.40
2023-01-12T18:29:30.483Z,9.30
2023-01-12T18:31:58.260Z,9.40
2023-01-12T18:34:26.014Z,9.30
2023-01-12T18:36:53.539Z,9.30
2023-01-12T18:39:21.434Z,9.30
2023-01-12T18:42:09.390Z,9.20
2023-01-12T18:44:40.157Z,9.20
2023-01-12T18:47:26.031Z,9.20
2023-01-12T18:49:58.633Z,9.20
2023-01-12T18:52:44.745Z,9.10
2023-01-12T18:55:12.233Z,9.20
2023-01-12T18:57:41.143Z,9.10
2023-01-12T19:00:13.729Z,9.10
2023-01-12T19:02:45.858Z,9.00
2023-01-12T19:05:23.349Z,9.00
2023-01-12T19:07:58.359Z,8.90
2023-01-12T19:10:31.842Z,8.90
2023-01-12T19:13:18.778Z,8.80
2023-01-12T19:16:06.095Z,8.70
2023-01-12T19:18:40.510Z,8.70
2023-01-12T19:21:29.355Z,8.70
2023-01-12T19:24:15.498Z,8.70
2023-01-12T19:27:01.636Z,8.60
2023-01-12T19:29:29.301Z,8.60
2023-01-12T19:31:56.707Z,8.60
2023-01-12T19:34:25.913Z,8.60
2023-01-12T19:36:53.898Z,8.60
2023-01-12T19:39:34.428Z,8.60
2023-01-12T19:42:20.958Z,8.60
2023-01-12T19:44:50.226Z,8.60
2023-01-12T19:47:18.807Z,8.50
2023-01-12T19:49:47.035Z,8.60
2023-01-12T19:52:15.308Z,8.50
2023-01-12T19:54:46.406Z,8.60
2023-01-12T19:57:14.597Z,8.70
2023-01-12T19:59:42.755Z,8.60
2023-01-12T20:02:14.087Z,8.60
2023-01-12T20:04:42.847Z,8.60
2023-01-12T20:07:11.565Z,8.60
2023-01-12T20:09:40.116Z,8.60
2023-01-12T20:12:08.676Z,8.60
2023-01-12T20:14:36.789Z,8.60
2023-01-12T20:17:06.055Z,8.60
2023-01-12T20:19:35.372Z,8.60
2023-01-12T20:22:04.066Z,8.60
2023-01-12T20:24:32.096Z,8.60
2023-01-12T20:27:00.165Z,8.50
2023-01-12T20:29:28.556Z,8.60
2023-01-12T20:31:57.010Z,8.50
2023-01-12T20:34:25.004Z,8.50
2023-01-12T20:36:53.313Z,8.50
2023-01-12T20:39:24.102Z,8.50
2023-01-12T20:41:51.610Z,8.50
2023-01-12T20:44:20.897Z,8.50
2023-01-12T20:46:48.517Z,8.50
2023-01-12T20:49:16.384Z,8.50
2023-01-12T20:51:44.065Z,8.40
2023-01-12T20:54:14.152Z,8.40
2023-01-12T20:56:41.759Z,8.40
2023-01-12T20:59:09.934Z,8.40
2023-01-12T21:01:37.414Z,8.40
2023-01-12T21:04:05.103Z,8.40
2023-01-12T21:06:32.946Z,8.30
2023-01-12T21:09:04.619Z,8.30
2023-01-12T21:11:32.164Z,8.30
2023-01-12T21:13:59.504Z,8.30
2023-01-12T21:16:27.018Z,8.30
2023-01-12T21:18:54.561Z,8.30
2023-01-12T21:21:22.091Z,8.20
2023-01-12T21:23:49.419Z,8.20
2023-01-12T21:26:16.890Z,8.20
2023-01-12T21:28:44.166Z,8.10
2023-01-12T21:31:14.269Z,8.20
2023-01-12T21:33:41.545Z,8.10
2023-01-12T21:36:11.517Z,8.10
2023-01-12T21:38:38.886Z,8.10
2023-01-12T21:41:11.459Z,8.00
2023-01-12T21:43:39.138Z,8.00
2023-01-12T21:46:10.341Z,7.90
2023-01-12T21:48:37.638Z,7.80
2023-01-12T21:51:08.760Z,7.80
2023-01-12T21:53:42.908Z,7.70
2023-01-12T21:56:12.844Z,7.70
2023-01-12T21:58:40.207Z,7.70
2023-01-12T22:01:12.776Z,7.60
2023-01-12T22:03:40.974Z,7.60
2023-01-12T22:06:11.965Z,7.60
2023-01-12T22:08:41.414Z,7.60
2023-01-12T22:11:15.022Z,7.60
2023-01-12T22:13:45.999Z,7.50
2023-01-12T22:16:15.961Z,7.50
2023-01-12T22:18:49.608Z,7.50
2023-01-12T22:21:18.978Z,7.40
2023-01-12T22:23:46.751Z,7.40
2023-01-12T22:26:15.557Z,7.40
2023-01-12T22:28:44.940Z,7.40
2023-01-12T22:31:24.050Z,7.30
2023-01-12T22:34:04.884Z,7.30
2023-01-12T22:36:35.320Z,7.30
2023-01-12T22:39:02.839Z,7.30
2023-01-12T22:41:29.989Z,7.30
2023-01-12T22:43:57.130Z,7.30
2023-01-12T22:46:26.816Z,7.30
2023-01-12T22:48:56.867Z,7.20
2023-01-12T22:51:26.232Z,7.20
2023-01-12T22:53:55.595Z,7.30
2023-01-12T22:56:23.146Z,7.30
2023-01-12T22:58:53.073Z,7.20
2023-01-12T23:01:22.509Z,7.20
2023-01-12T23:03:54.656Z,7.30
2023-01-12T23:06:23.797Z,7.30
2023-01-12T23:08:52.045Z,7.30
2023-01-12T23:11:25.626Z,7.40
2023-01-12T23:13:56.775Z,7.40
2023-01-12T23:16:24.435Z,7.30
2023-01-12T23:18:55.360Z,7.30
2023-01-12T23:21:26.598Z,7.30
2023-01-12T23:23:59.854Z,7.30
2023-01-12T23:26:32.068Z,7.30
2023-01-12T23:29:02.311Z,7.20
2023-01-12T23:31:33.507Z,7.20
2023-01-12T23:34:01.560Z,7.20
2023-01-12T23:36:30.645Z,7.20
2023-01-12T23:39:01.334Z,7.20
2023-01-12T23:41:31.125Z,7.20
2023-01-12T23:44:01.496Z,7.10
2023-01-12T23:46:33.244Z,7.10
2023-01-12T23:49:04.344Z,7.00
2023-01-12T23:51:32.621Z,7.00
2023-01-12T23:54:02.043Z,6.90
2023-01-12T23:56:33.769Z,6.90
2023-01-12T23:59:01.265Z,6.80
